sensor_id;sensor_type;location;lat;lon;timestamp;temperature;humidity
52203;DHT22;38173;52.850;6.970;2024-02-16T00:00:40;10.90;99.90
52203;DHT22;38173;52.850;6.970;2024-02-16T00:03:10;11.00;99.90
52203;DHT22;38173;52.850;6.970;2024-02-16T00:05:35;10.90;99.90
52203;DHT22;38173;52.850;6.970;2024-02-16T00:08:02;11.00;99.90
52203;DHT22;38173;52.850;6.970;2024-02-16T00:10:28;10.90;99.90
52203;DHT22;38173;52.850;6.970;2024-02-16T00:12:54;10.90;99.90
52203;DHT22;38173;52.850;6.970;2024-02-16T00:15:20;10.80;99.90
52203;DHT22;38173;52.850;6.970;2024-02-16T00:17:46;10.90;99.90
52203;DHT22;38173;52.850;6.970;2024-02-16T00:20:11;10.80;99.90
52203;DHT22;38173;52.850;6.970;2024-02-16T00:22:40;10.90;99.90
52203;DHT22;38173;52.850;6.970;2024-02-16T00:25:06;10.90;99.90
52203;DHT22;38173;52.850;6.970;2024-02-16T00:27:32;10.90;99.90
52203;DHT22;38173;52.850;6.970;2024-02-16T00:29:58;10.80;99.90
52203;DHT22;38173;52.850;6.970;2024-02-16T00:32:23;10.80;99.90
52203;DHT22;38173;52.850;6.970;2024-02-16T00:34:53;10.80;99.90
52203;DHT22;38173;52.850;6.970;2024-02-16T00:37:19;10.90;99.90
52203;DHT22;38173;52.850;6.970;2024-02-16T00:39:45;10.90;99.90
52203;DHT22;38173;52.850;6.970;2024-02-16T00:42:10;10.80;99.90
52203;DHT22;38173;52.850;6.970;2024-02-16T00:44:36;10.80;99.90
52203;DHT22;38173;52.850;6.970;2024-02-16T00:47:02;10.80;99.90
52203;DHT22;38173;52.850;6.970;2024-02-16T00:49:31;10.90;99.90
52203;DHT22;38173;52.850;6.970;2024-02-16T00:51:57;10.90;99.90
52203;DHT22;38173;52.850;6.970;2024-02-16T00:54:23;10.80;99.90
52203;DHT22;38173;52.850;6.970;2024-02-16T00:56:49;10.80;99.90
52203;DHT22;38173;52.850;6.970;2024-02-16T00:59:14;10.90;99.90
52203;DHT22;38173;52.850;6.970;2024-02-16T01:01:40;10.80;99.90
52203;DHT22;38173;52.850;6.970;2024-02-16T01:04:06;10.80;99.90
52203;DHT22;38173;52.850;6.970;2024-02-16T01:06:32;10.80;99.90
52203;DHT22;38173;52.850;6.970;2024-02-16T01:09:01;10.80;99.90
52203;DHT22;38173;52.850;6.970;2024-02-16T01:11:28;10.70;99.90
52203;DHT22;38173;52.850;6.970;2024-02-16T01:13:53;10.70;99.90
52203;DHT22;38173;52.850;6.970;2024-02-16T01:16:20;10.70;99.90
52203;DHT22;38173;52.850;6.970;2024-02-16T01:18:47;10.60;99.90
52203;DHT22;38173;52.850;6.970;2024-02-16T01:21:12;10.60;99.90
52203;DHT22;38173;52.850;6.970;2024-02-16T01:23:38;10.60;99.90
52203;DHT22;38173;52.850;6.970;2024-02-16T01:26:03;10.60;99.90
52203;DHT22;38173;52.850;6.970;2024-02-16T01:28:29;10.50;99.90
52203;DHT22;38173;52.850;6.970;2024-02-16T01:30:55;10.50;99.90
52203;DHT22;38173;52.850;6.970;2024-02-16T01:33:22;10.40;99.90
52203;DHT22;38173;52.850;6.970;2024-02-16T01:35:47;10.40;99.90
52203;DHT22;38173;52.850;6.970;2024-02-16T01:38:13;10.40;99.90
52203;DHT22;38173;52.850;6.970;2024-02-16T01:40:40;10.30;99.90
52203;DHT22;38173;52.850;6.970;2024-02-16T01:43:05;10.30;99.90
52203;DHT22;38173;52.850;6.970;2024-02-16T01:45:31;10.30;99.90
52203;DHT22;38173;52.850;6.970;2024-02-16T01:47:57;10.30;99.90
52203;DHT22;38173;52.850;6.970;2024-02-16T01:50:23;10.30;99.90
52203;DHT22;38173;52.850;6.970;2024-02-16T01:52:50;10.20;99.90
52203;DHT22;38173;52.850;6.970;2024-02-16T01:55:16;10.20;99.90
52203;DHT22;38173;52.850;6.970;2024-02-16T01:57:47;10.20;99.90
52203;DHT22;38173;52.850;6.970;2024-02-16T02:00:13;10.30;99.90
52203;DHT22;38173;52.850;6.970;2024-02-16T02:02:41;10.20;99.90
52203;DHT22;38173;52.850;6.970;2024-02-16T02:05:11;10.20;99.90
52203;DHT22;38173;52.850;6.970;2024-02-16T02:07:38;10.20;99.90
52203;DHT22;38173;52.850;6.970;2024-02-16T02:10:04;10.20;99.90
52203;DHT22;38173;52.850;6.970;2024-02-16T02:12:30;10.20;99.90
52203;DHT22;38173;52.850;6.970;2024-02-16T02:14:56;10.10;99.90
52203;DHT22;38173;52.850;6.970;2024-02-16T02:17:22;10.10;99.90
52203;DHT22;38173;52.850;6.970;2024-02-16T02:19:48;10.10;99.90
52203;DHT22;38173;52.850;6.970;2024-02-16T02:22:17;10.10;99.90
52203;DHT22;38173;52.850;6.970;2024-02-16T02:24:44;10.10;99.90
52203;DHT22;38173;52.850;6.970;2024-02-16T02:27:11;10.10;99.90
52203;DHT22;38173;52.850;6.970;2024-02-16T02:29:38;10.10;99.90
52203;DHT22;38173;52.850;6.970;2024-02-16T02:32:05;10.10;99.90
52203;DHT22;38173;52.850;6.970;2024-02-16T02:34:31;10.10;99.90
52203;DHT22;38173;52.850;6.970;2024-02-16T02:36:56;10.10;99.90
52203;DHT22;38173;52.850;6.970;2024-02-16T02:39:23;10.10;99.90
52203;DHT22;38173;52.850;6.970;2024-02-16T02:41:48;10.10;99.90
52203;DHT22;38173;52.850;6.970;2024-02-16T02:44:14;10.10;99.90
52203;DHT22;38173;52.850;6.970;2024-02-16T02:46:40;10.10;99.90
52203;DHT22;38173;52.850;6.970;2024-02-16T02:49:05;10.10;99.90
52203;DHT22;38173;52.850;6.970;2024-02-16T02:51:31;10.00;99.90
52203;DHT22;38173;52.850;6.970;2024-02-16T02:53:57;10.00;99.90
52203;DHT22;38173;52.850;6.970;2024-02-16T02:56:23;10.00;99.90
52203;DHT22;38173;52.850;6.970;2024-02-16T02:58:48;10.00;99.90
52203;DHT22;38173;52.850;6.970;2024-02-16T03:01:14;10.00;99.90
52203;DHT22;38173;52.850;6.970;2024-02-16T03:03:40;10.10;99.90
52203;DHT22;38173;52.850;6.970;2024-02-16T03:06:07;10.00;99.90
52203;DHT22;38173;52.850;6.970;2024-02-16T03:08:33;10.00;99.90
52203;DHT22;38173;52.850;6.970;2024-02-16T03:10:59;10.00;99.90
52203;DHT22;38173;52.850;6.970;2024-02-16T03:13:27;10.00;99.90
52203;DHT22;38173;52.850;6.970;2024-02-16T03:15:53;9.90;99.90
52203;DHT22;38173;52.850;6.970;2024-02-16T03:18:19;9.90;99.90
52203;DHT22;38173;52.850;6.970;2024-02-16T03:20:45;9.90;99.90
52203;DHT22;38173;52.850;6.970;2024-02-16T03:23:15;9.90;99.90
52203;DHT22;38173;52.850;6.970;2024-02-16T03:25:40;9.90;99.90
52203;DHT22;38173;52.850;6.970;2024-02-16T03:28:11;9.90;99.90
52203;DHT22;38173;52.850;6.970;2024-02-16T03:30:38;9.90;99.90
52203;DHT22;38173;52.850;6.970;2024-02-16T03:33:04;9.90;99.90
52203;DHT22;38173;52.850;6.970;2024-02-16T03:35:30;9.90;99.90
52203;DHT22;38173;52.850;6.970;2024-02-16T03:37:58;9.90;99.90
52203;DHT22;38173;52.850;6.970;2024-02-16T03:40:25;9.90;99.90
52203;DHT22;38173;52.850;6.970;2024-02-16T03:42:51;9.90;99.90
52203;DHT22;38173;52.850;6.970;2024-02-16T03:45:17;9.90;99.90
52203;DHT22;38173;52.850;6.970;2024-02-16T03:47:43;9.90;99.90
52203;DHT22;38173;52.850;6.970;2024-02-16T03:50:09;9.90;99.90
52203;DHT22;38173;52.850;6.970;2024-02-16T03:52:36;9.90;99.90
52203;DHT22;38173;52.850;6.970;2024-02-16T03:55:02;9.90;99.90
52203;DHT22;38173;52.850;6.970;2024-02-16T03:57:30;9.90;99.90
52203;DHT22;38173;52.850;6.970;2024-02-16T03:59:57;9.90;99.90
52203;DHT22;38173;52.850;6.970;2024-02-16T04:02:22;9.90;99.90
52203;DHT22;38173;52.850;6.970;2024-02-16T04:04:48;9.90;99.90
52203;DHT22;38173;52.850;6.970;2024-02-16T04:07:15;9.90;99.90
52203;DHT22;38173;52.850;6.970;2024-02-16T04:09:41;9.90;99.90
52203;DHT22;38173;52.850;6.970;2024-02-16T04:12:07;9.90;99.90
52203;DHT22;38173;52.850;6.970;2024-02-16T04:14:33;9.90;99.90
52203;DHT22;38173;52.850;6.970;2024-02-16T04:16:59;9.90;99.90
52203;DHT22;38173;52.850;6.970;2024-02-16T04:19:28;9.90;99.90
52203;DHT22;38173;52.850;6.970;2024-02-16T04:21:55;9.80;99.90
52203;DHT22;38173;52.850;6.970;2024-02-16T04:24:21;9.80;99.90
52203;DHT22;38173;52.850;6.970;2024-02-16T04:26:47;9.70;99.90
52203;DHT22;38173;52.850;6.970;2024-02-16T04:29:12;9.80;99.90
52203;DHT22;38173;52.850;6.970;2024-02-16T04:31:41;9.90;99.90
52203;DHT22;38173;52.850;6.970;2024-02-16T04:34:08;9.90;99.90
52203;DHT22;38173;52.850;6.970;2024-02-16T04:36:34;10.00;99.90
52203;DHT22;38173;52.850;6.970;2024-02-16T04:39:00;10.00;99.90
52203;DHT22;38173;52.850;6.970;2024-02-16T04:41:26;10.10;99.90
52203;DHT22;38173;52.850;6.970;2024-02-16T04:43:51;10.00;99.90
52203;DHT22;38173;52.850;6.970;2024-02-16T04:46:18;10.00;99.90
52203;DHT22;38173;52.850;6.970;2024-02-16T04:48:44;10.00;99.90
52203;DHT22;38173;52.850;6.970;2024-02-16T04:51:13;9.90;99.90
52203;DHT22;38173;52.850;6.970;2024-02-16T04:53:38;9.90;99.90
52203;DHT22;38173;52.850;6.970;2024-02-16T04:56:04;9.90;99.90
52203;DHT22;38173;52.850;6.970;2024-02-16T04:58:31;9.80;99.90
52203;DHT22;38173;52.850;6.970;2024-02-16T05:00:57;9.70;99.90
52203;DHT22;38173;52.850;6.970;2024-02-16T05:03:24;9.70;99.90
52203;DHT22;38173;52.850;6.970;2024-02-16T05:05:50;9.70;99.90
52203;DHT22;38173;52.850;6.970;2024-02-16T05:08:17;9.70;99.90
52203;DHT22;38173;52.850;6.970;2024-02-16T05:10:42;9.60;99.90
52203;DHT22;38173;52.850;6.970;2024-02-16T05:13:08;9.60;99.90
52203;DHT22;38173;52.850;6.970;2024-02-16T05:15:34;9.70;99.90
52203;DHT22;38173;52.850;6.970;2024-02-16T05:17:59;9.70;99.90
52203;DHT22;38173;52.850;6.970;2024-02-16T05:20:25;9.60;99.90
52203;DHT22;38173;52.850;6.970;2024-02-16T05:22:51;9.70;99.90
52203;DHT22;38173;52.850;6.970;2024-02-16T05:25:18;9.70;99.90
52203;DHT22;38173;52.850;6.970;2024-02-16T05:27:45;9.60;99.90
52203;DHT22;38173;52.850;6.970;2024-02-16T05:30:14;9.60;99.90
52203;DHT22;38173;52.850;6.970;2024-02-16T05:32:44;9.60;99.90
52203;DHT22;38173;52.850;6.970;2024-02-16T05:35:10;9.60;99.90
52203;DHT22;38173;52.850;6.970;2024-02-16T05:37:47;9.60;99.90
52203;DHT22;38173;52.850;6.970;2024-02-16T05:40:22;9.60;99.90
52203;DHT22;38173;52.850;6.970;2024-02-16T05:42:51;9.70;99.90
52203;DHT22;38173;52.850;6.970;2024-02-16T05:45:17;9.70;99.90
52203;DHT22;38173;52.850;6.970;2024-02-16T05:47:44;9.70;99.90
52203;DHT22;38173;52.850;6.970;2024-02-16T05:50:11;9.80;99.90
52203;DHT22;38173;52.850;6.970;2024-02-16T05:52:38;9.80;99.90
52203;DHT22;38173;52.850;6.970;2024-02-16T05:55:06;9.90;99.90
52203;DHT22;38173;52.850;6.970;2024-02-16T05:57:32;9.90;99.90
52203;DHT22;38173;52.850;6.970;2024-02-16T05:59:57;9.90;99.90
52203;DHT22;38173;52.850;6.970;2024-02-16T06:02:23;9.80;99.90
52203;DHT22;38173;52.850;6.970;2024-02-16T06:04:55;9.80;99.90
52203;DHT22;38173;52.850;6.970;2024-02-16T06:07:21;9.80;99.90
52203;DHT22;38173;52.850;6.970;2024-02-16T06:09:47;9.80;99.90
52203;DHT22;38173;52.850;6.970;2024-02-16T06:12:13;9.80;99.90
52203;DHT22;38173;52.850;6.970;2024-02-16T06:14:41;9.90;99.90
52203;DHT22;38173;52.850;6.970;2024-02-16T06:17:07;9.90;99.90
52203;DHT22;38173;52.850;6.970;2024-02-16T06:19:35;9.90;99.90
52203;DHT22;38173;52.850;6.970;2024-02-16T06:22:03;9.90;99.90
52203;DHT22;38173;52.850;6.970;2024-02-16T06:24:29;10.00;99.90
52203;DHT22;38173;52.850;6.970;2024-02-16T06:26:55;10.00;99.90
52203;DHT22;38173;52.850;6.970;2024-02-16T06:29:20;10.10;99.90
52203;DHT22;38173;52.850;6.970;2024-02-16T06:31:47;10.10;99.90
52203;DHT22;38173;52.850;6.970;2024-02-16T06:34:17;10.10;99.90
52203;DHT22;38173;52.850;6.970;2024-02-16T06:36:43;10.10;99.90
52203;DHT22;38173;52.850;6.970;2024-02-16T06:39:11;10.10;99.90
52203;DHT22;38173;52.850;6.970;2024-02-16T06:41:41;10.10;99.90
52203;DHT22;38173;52.850;6.970;2024-02-16T06:44:09;10.20;99.90
52203;DHT22;38173;52.850;6.970;2024-02-16T06:46:35;10.20;99.90
52203;DHT22;38173;52.850;6.970;2024-02-16T06:49:05;10.10;99.90
52203;DHT22;38173;52.850;6.970;2024-02-16T06:51:30;10.10;99.90
52203;DHT22;38173;52.850;6.970;2024-02-16T06:53:56;10.10;99.90
52203;DHT22;38173;52.850;6.970;2024-02-16T06:56:22;10.10;99.90
52203;DHT22;38173;52.850;6.970;2024-02-16T06:58:48;10.10;99.90
52203;DHT22;38173;52.850;6.970;2024-02-16T07:01:15;10.20;99.90
52203;DHT22;38173;52.850;6.970;2024-02-16T07:03:41;10.30;99.90
52203;DHT22;38173;52.850;6.970;2024-02-16T07:06:07;10.30;99.90
52203;DHT22;38173;52.850;6.970;2024-02-16T07:08:39;10.40;99.90
52203;DHT22;38173;52.850;6.970;2024-02-16T07:11:05;10.50;99.90
52203;DHT22;38173;52.850;6.970;2024-02-16T07:13:34;10.60;99.90
52203;DHT22;38173;52.850;6.970;2024-02-16T07:16:01;10.70;99.90
52203;DHT22;38173;52.850;6.970;2024-02-16T07:18:27;10.80;99.90
52203;DHT22;38173;52.850;6.970;2024-02-16T07:20:52;10.80;99.90
52203;DHT22;38173;52.850;6.970;2024-02-16T07:23:18;10.90;99.90
52203;DHT22;38173;52.850;6.970;2024-02-16T07:25:44;11.00;99.90
52203;DHT22;38173;52.850;6.970;2024-02-16T07:28:09;11.10;99.90
52203;DHT22;38173;52.850;6.970;2024-02-16T07:30:35;11.20;99.90
52203;DHT22;38173;52.850;6.970;2024-02-16T07:33:05;11.20;99.90
52203;DHT22;38173;52.850;6.970;2024-02-16T07:35:35;11.30;99.90
52203;DHT22;38173;52.850;6.970;2024-02-16T07:38:02;11.30;99.90
52203;DHT22;38173;52.850;6.970;2024-02-16T07:40:28;11.40;99.90
52203;DHT22;38173;52.850;6.970;2024-02-16T07:42:54;11.40;99.90
52203;DHT22;38173;52.850;6.970;2024-02-16T07:45:20;11.40;99.90
52203;DHT22;38173;52.850;6.970;2024-02-16T07:47:46;11.40;99.90
52203;DHT22;38173;52.850;6.970;2024-02-16T07:50:12;11.40;99.90
52203;DHT22;38173;52.850;6.970;2024-02-16T07:52:38;11.50;99.90
52203;DHT22;38173;52.850;6.970;2024-02-16T07:55:08;11.50;99.90
52203;DHT22;38173;52.850;6.970;2024-02-16T07:57:34;11.50;99.90
52203;DHT22;38173;52.850;6.970;2024-02-16T08:00:00;11.50;99.90
52203;DHT22;38173;52.850;6.970;2024-02-16T08:02:25;11.50;99.90
52203;DHT22;38173;52.850;6.970;2024-02-16T08:04:54;11.50;99.90
52203;DHT22;38173;52.850;6.970;2024-02-16T08:07:19;11.50;99.90
52203;DHT22;38173;52.850;6.970;2024-02-16T08:09:46;11.50;99.90
52203;DHT22;38173;52.850;6.970;2024-02-16T08:12:15;11.60;99.90
52203;DHT22;38173;52.850;6.970;2024-02-16T08:14:42;11.60;99.90
52203;DHT22;38173;52.850;6.970;2024-02-16T08:17:09;11.60;99.90
52203;DHT22;38173;52.850;6.970;2024-02-16T08:19:36;11.60;99.90
52203;DHT22;38173;52.850;6.970;2024-02-16T08:22:03;11.70;99.90
52203;DHT22;38173;52.850;6.970;2024-02-16T08:24:33;11.70;99.90
52203;DHT22;38173;52.850;6.970;2024-02-16T08:26:59;11.70;99.90
52203;DHT22;38173;52.850;6.970;2024-02-16T08:29:24;11.70;99.90
52203;DHT22;38173;52.850;6.970;2024-02-16T08:31:51;11.70;99.90
52203;DHT22;38173;52.850;6.970;2024-02-16T08:34:17;11.80;99.90
52203;DHT22;38173;52.850;6.970;2024-02-16T08:36:44;11.70;99.90
52203;DHT22;38173;52.850;6.970;2024-02-16T08:39:10;11.80;99.90
52203;DHT22;38173;52.850;6.970;2024-02-16T08:41:37;11.80;99.90
52203;DHT22;38173;52.850;6.970;2024-02-16T08:44:04;11.80;99.90
52203;DHT22;38173;52.850;6.970;2024-02-16T08:46:30;11.80;99.90
52203;DHT22;38173;52.850;6.970;2024-02-16T08:48:56;11.90;99.90
52203;DHT22;38173;52.850;6.970;2024-02-16T08:51:22;11.90;99.90
52203;DHT22;38173;52.850;6.970;2024-02-16T08:53:47;11.90;99.90
52203;DHT22;38173;52.850;6.970;2024-02-16T08:56:13;11.90;99.90
52203;DHT22;38173;52.850;6.970;2024-02-16T08:58:38;12.00;99.90
52203;DHT22;38173;52.850;6.970;2024-02-16T09:01:05;12.00;99.90
52203;DHT22;38173;52.850;6.970;2024-02-16T09:03:30;12.00;99.90
52203;DHT22;38173;52.850;6.970;2024-02-16T09:06:02;12.10;99.90
52203;DHT22;38173;52.850;6.970;2024-02-16T09:08:28;12.10;99.90
52203;DHT22;38173;52.850;6.970;2024-02-16T09:10:59;12.10;99.90
52203;DHT22;38173;52.850;6.970;2024-02-16T09:13:25;12.10;99.90
52203;DHT22;38173;52.850;6.970;2024-02-16T09:15:50;12.20;99.90
52203;DHT22;38173;52.850;6.970;2024-02-16T09:18:17;12.20;99.90
52203;DHT22;38173;52.850;6.970;2024-02-16T09:20:43;12.20;99.90
52203;DHT22;38173;52.850;6.970;2024-02-16T09:23:09;12.20;99.90
52203;DHT22;38173;52.850;6.970;2024-02-16T09:25:35;12.20;99.90
52203;DHT22;38173;52.850;6.970;2024-02-16T09:28:03;12.20;99.90
52203;DHT22;38173;52.850;6.970;2024-02-16T09:30:32;12.30;99.90
52203;DHT22;38173;52.850;6.970;2024-02-16T09:32:58;12.30;99.90
52203;DHT22;38173;52.850;6.970;2024-02-16T09:35:24;12.40;99.90
52203;DHT22;38173;52.850;6.970;2024-02-16T09:37:49;12.40;99.90
52203;DHT22;38173;52.850;6.970;2024-02-16T09:40:18;12.50;99.90
52203;DHT22;38173;52.850;6.970;2024-02-16T09:42:48;12.50;99.90
52203;DHT22;38173;52.850;6.970;2024-02-16T09:45:17;12.60;99.90
52203;DHT22;38173;52.850;6.970;2024-02-16T09:47:45;12.60;99.90
52203;DHT22;38173;52.850;6.970;2024-02-16T09:50:12;12.60;99.90
52203;DHT22;38173;52.850;6.970;2024-02-16T09:52:38;12.70;99.90
52203;DHT22;38173;52.850;6.970;2024-02-16T09:55:10;12.80;99.90
52203;DHT22;38173;52.850;6.970;2024-02-16T09:57:37;12.80;99.90
52203;DHT22;38173;52.850;6.970;2024-02-16T10:00:03;12.90;99.90
52203;DHT22;38173;52.850;6.970;2024-02-16T10:02:45;13.00;99.90
52203;DHT22;38173;52.850;6.970;2024-02-16T10:05:24;13.00;99.90
52203;DHT22;38173;52.850;6.970;2024-02-16T10:07:51;13.10;99.90
52203;DHT22;38173;52.850;6.970;2024-02-16T10:10:27;13.20;99.90
52203;DHT22;38173;52.850;6.970;2024-02-16T10:13:04;13.20;99.90
52203;DHT22;38173;52.850;6.970;2024-02-16T10:15:34;13.20;99.90
52203;DHT22;38173;52.850;6.970;2024-02-16T10:18:00;13.20;99.90
52203;DHT22;38173;52.850;6.970;2024-02-16T10:20:26;13.30;99.90
52203;DHT22;38173;52.850;6.970;2024-02-16T10:23:09;13.30;99.90
52203;DHT22;38173;52.850;6.970;2024-02-16T10:25:36;13.30;99.90
52203;DHT22;38173;52.850;6.970;2024-02-16T10:28:07;13.30;99.90
52203;DHT22;38173;52.850;6.970;2024-02-16T10:30:39;13.40;99.90
52203;DHT22;38173;52.850;6.970;2024-02-16T10:33:06;13.50;99.90
52203;DHT22;38173;52.850;6.970;2024-02-16T10:35:36;13.50;99.90
52203;DHT22;38173;52.850;6.970;2024-02-16T10:38:06;13.60;99.90
52203;DHT22;38173;52.850;6.970;2024-02-16T10:40:41;13.60;99.90
52203;DHT22;38173;52.850;6.970;2024-02-16T10:43:11;13.60;99.90
52203;DHT22;38173;52.850;6.970;2024-02-16T10:45:39;13.70;99.90
52203;DHT22;38173;52.850;6.970;2024-02-16T10:48:06;13.70;99.90
52203;DHT22;38173;52.850;6.970;2024-02-16T10:50:34;13.80;99.90
52203;DHT22;38173;52.850;6.970;2024-02-16T10:53:06;13.80;99.90
52203;DHT22;38173;52.850;6.970;2024-02-16T10:55:34;13.90;99.90
52203;DHT22;38173;52.850;6.970;2024-02-16T10:58:00;13.90;99.90
52203;DHT22;38173;52.850;6.970;2024-02-16T11:00:26;14.00;99.90
52203;DHT22;38173;52.850;6.970;2024-02-16T11:02:58;14.00;99.90
52203;DHT22;38173;52.850;6.970;2024-02-16T11:05:41;14.00;99.90
52203;DHT22;38173;52.850;6.970;2024-02-16T11:08:14;13.80;99.90
52203;DHT22;38173;52.850;6.970;2024-02-16T11:10:41;13.80;99.90
52203;DHT22;38173;52.850;6.970;2024-02-16T11:13:06;13.80;99.90
52203;DHT22;38173;52.850;6.970;2024-02-16T11:15:37;13.70;99.90
52203;DHT22;38173;52.850;6.970;2024-02-16T11:18:03;13.70;99.90
52203;DHT22;38173;52.850;6.970;2024-02-16T11:20:37;13.60;99.90
52203;DHT22;38173;52.850;6.970;2024-02-16T11:23:06;13.60;99.90
52203;DHT22;38173;52.850;6.970;2024-02-16T11:25:33;13.50;99.90
52203;DHT22;38173;52.850;6.970;2024-02-16T11:27:59;13.50;99.90
52203;DHT22;38173;52.850;6.970;2024-02-16T11:30:25;13.40;99.90
52203;DHT22;38173;52.850;6.970;2024-02-16T11:32:52;13.40;99.90
52203;DHT22;38173;52.850;6.970;2024-02-16T11:35:20;13.40;99.90
52203;DHT22;38173;52.850;6.970;2024-02-16T11:37:46;13.30;99.90
52203;DHT22;38173;52.850;6.970;2024-02-16T11:40:13;13.40;99.90
52203;DHT22;38173;52.850;6.970;2024-02-16T11:42:38;13.30;99.90
52203;DHT22;38173;52.850;6.970;2024-02-16T11:45:05;13.30;99.90
52203;DHT22;38173;52.850;6.970;2024-02-16T11:47:31;13.20;99.90
52203;DHT22;38173;52.850;6.970;2024-02-16T11:50:07;13.20;99.90
52203;DHT22;38173;52.850;6.970;2024-02-16T11:52:41;13.10;99.90
52203;DHT22;38173;52.850;6.970;2024-02-16T11:55:08;13.10;99.90
52203;DHT22;38173;52.850;6.970;2024-02-16T11:57:35;13.00;99.90
52203;DHT22;38173;52.850;6.970;2024-02-16T12:00:02;13.00;99.90
52203;DHT22;38173;52.850;6.970;2024-02-16T12:02:36;12.90;99.90
52203;DHT22;38173;52.850;6.970;2024-02-16T12:05:02;12.80;99.90
52203;DHT22;38173;52.850;6.970;2024-02-16T12:07:28;12.80;99.90
52203;DHT22;38173;52.850;6.970;2024-02-16T12:09:59;12.80;99.90
52203;DHT22;38173;52.850;6.970;2024-02-16T12:12:26;12.80;99.90
52203;DHT22;38173;52.850;6.970;2024-02-16T12:14:55;12.70;99.90
52203;DHT22;38173;52.850;6.970;2024-02-16T12:17:21;12.60;99.90
52203;DHT22;38173;52.850;6.970;2024-02-16T12:19:47;12.50;99.90
52203;DHT22;38173;52.850;6.970;2024-02-16T12:22:17;12.50;99.90
52203;DHT22;38173;52.850;6.970;2024-02-16T12:24:45;12.40;99.90
52203;DHT22;38173;52.850;6.970;2024-02-16T12:27:10;12.40;99.90
52203;DHT22;38173;52.850;6.970;2024-02-16T12:29:36;12.30;99.90
52203;DHT22;38173;52.850;6.970;2024-02-16T12:32:02;12.30;99.90
52203;DHT22;38173;52.850;6.970;2024-02-16T12:34:28;12.20;99.90
52203;DHT22;38173;52.850;6.970;2024-02-16T12:36:53;12.20;99.90
52203;DHT22;38173;52.850;6.970;2024-02-16T12:39:19;12.10;99.90
52203;DHT22;38173;52.850;6.970;2024-02-16T12:41:46;12.10;99.90
52203;DHT22;38173;52.850;6.970;2024-02-16T12:44:12;12.00;99.90
52203;DHT22;38173;52.850;6.970;2024-02-16T12:46:38;12.00;99.90
52203;DHT22;38173;52.850;6.970;2024-02-16T12:49:05;11.90;99.90
52203;DHT22;38173;52.850;6.970;2024-02-16T12:51:30;11.90;99.90
52203;DHT22;38173;52.850;6.970;2024-02-16T12:53:56;11.90;99.90
52203;DHT22;38173;52.850;6.970;2024-02-16T12:56:22;11.90;99.90
52203;DHT22;38173;52.850;6.970;2024-02-16T12:58:47;11.90;99.90
52203;DHT22;38173;52.850;6.970;2024-02-16T13:01:13;11.80;99.90
52203;DHT22;38173;52.850;6.970;2024-02-16T13:03:39;11.80;99.90
52203;DHT22;38173;52.850;6.970;2024-02-16T13:06:05;11.80;99.90
52203;DHT22;38173;52.850;6.970;2024-02-16T13:08:31;11.80;99.90
52203;DHT22;38173;52.850;6.970;2024-02-16T13:10:57;11.80;99.90
52203;DHT22;38173;52.850;6.970;2024-02-16T13:13:24;11.80;99.90
52203;DHT22;38173;52.850;6.970;2024-02-16T13:15:49;11.70;99.90
52203;DHT22;38173;52.850;6.970;2024-02-16T13:18:16;11.80;99.90
52203;DHT22;38173;52.850;6.970;2024-02-16T13:20:42;11.80;99.90
52203;DHT22;38173;52.850;6.970;2024-02-16T13:23:09;11.80;99.90
52203;DHT22;38173;52.850;6.970;2024-02-16T13:25:35;11.80;99.90
52203;DHT22;38173;52.850;6.970;2024-02-16T13:28:02;11.80;99.90
52203;DHT22;38173;52.850;6.970;2024-02-16T13:30:27;11.70;99.90
52203;DHT22;38173;52.850;6.970;2024-02-16T13:32:54;11.70;99.90
52203;DHT22;38173;52.850;6.970;2024-02-16T13:35:20;11.60;99.90
52203;DHT22;38173;52.850;6.970;2024-02-16T13:37:45;11.60;99.90
52203;DHT22;38173;52.850;6.970;2024-02-16T13:40:12;11.60;99.90
52203;DHT22;38173;52.850;6.970;2024-02-16T13:42:39;11.50;99.90
52203;DHT22;38173;52.850;6.970;2024-02-16T13:45:05;11.50;99.90
52203;DHT22;38173;52.850;6.970;2024-02-16T13:47:31;11.50;99.90
52203;DHT22;38173;52.850;6.970;2024-02-16T13:49:57;11.40;99.90
52203;DHT22;38173;52.850;6.970;2024-02-16T13:52:24;11.40;99.90
52203;DHT22;38173;52.850;6.970;2024-02-16T13:54:50;11.30;99.90
52203;DHT22;38173;52.850;6.970;2024-02-16T13:57:16;11.30;99.90
52203;DHT22;38173;52.850;6.970;2024-02-16T13:59:45;11.20;99.90
52203;DHT22;38173;52.850;6.970;2024-02-16T14:02:11;11.20;99.90
52203;DHT22;38173;52.850;6.970;2024-02-16T14:04:37;11.20;99.90
52203;DHT22;38173;52.850;6.970;2024-02-16T14:07:03;11.20;99.90
52203;DHT22;38173;52.850;6.970;2024-02-16T14:09:30;11.20;99.90
52203;DHT22;38173;52.850;6.970;2024-02-16T14:11:56;11.10;99.90
52203;DHT22;38173;52.850;6.970;2024-02-16T14:14:27;11.20;99.90
52203;DHT22;38173;52.850;6.970;2024-02-16T14:16:56;11.20;99.90
52203;DHT22;38173;52.850;6.970;2024-02-16T14:19:22;11.20;99.90
52203;DHT22;38173;52.850;6.970;2024-02-16T14:21:48;11.20;99.90
52203;DHT22;38173;52.850;6.970;2024-02-16T14:24:14;11.20;99.90
52203;DHT22;38173;52.850;6.970;2024-02-16T14:26:40;11.30;99.90
52203;DHT22;38173;52.850;6.970;2024-02-16T14:29:07;11.30;99.90
52203;DHT22;38173;52.850;6.970;2024-02-16T14:31:33;11.30;99.90
52203;DHT22;38173;52.850;6.970;2024-02-16T14:33:59;11.40;99.90
52203;DHT22;38173;52.850;6.970;2024-02-16T14:36:25;11.40;99.90
52203;DHT22;38173;52.850;6.970;2024-02-16T14:38:51;11.40;99.90
52203;DHT22;38173;52.850;6.970;2024-02-16T14:41:23;11.50;99.90
52203;DHT22;38173;52.850;6.970;2024-02-16T14:43:54;11.40;99.90
52203;DHT22;38173;52.850;6.970;2024-02-16T14:46:21;11.40;99.90
52203;DHT22;38173;52.850;6.970;2024-02-16T14:48:50;11.40;99.90
52203;DHT22;38173;52.850;6.970;2024-02-16T14:51:17;11.40;99.90
52203;DHT22;38173;52.850;6.970;2024-02-16T14:53:43;11.40;99.90
52203;DHT22;38173;52.850;6.970;2024-02-16T14:56:09;11.40;99.90
52203;DHT22;38173;52.850;6.970;2024-02-16T14:58:38;11.40;99.90
52203;DHT22;38173;52.850;6.970;2024-02-16T15:01:04;11.40;99.90
52203;DHT22;38173;52.850;6.970;2024-02-16T15:03:29;11.40;99.90
52203;DHT22;38173;52.850;6.970;2024-02-16T15:05:56;11.40;99.90
52203;DHT22;38173;52.850;6.970;2024-02-16T15:08:21;11.40;99.90
52203;DHT22;38173;52.850;6.970;2024-02-16T15:10:47;11.30;99.90
52203;DHT22;38173;52.850;6.970;2024-02-16T15:13:14;11.40;99.90
52203;DHT22;38173;52.850;6.970;2024-02-16T15:15:40;11.30;99.90
52203;DHT22;38173;52.850;6.970;2024-02-16T15:18:06;11.30;99.90
52203;DHT22;38173;52.850;6.970;2024-02-16T15:20:32;11.30;99.90
52203;DHT22;38173;52.850;6.970;2024-02-16T15:22:57;11.40;99.90
52203;DHT22;38173;52.850;6.970;2024-02-16T15:25:23;11.40;99.90
52203;DHT22;38173;52.850;6.970;2024-02-16T15:27:50;11.40;99.90
52203;DHT22;38173;52.850;6.970;2024-02-16T15:30:19;11.30;99.90